Time;durP1;ratioP1;P1;durP2;ratioP2;P2;SDS_P1;SDS_P2;PMS_P1;PMS_P2;Temp;Humidity;BMP_temperature;BMP_pressure;BME280_temperature;BME280_humidity;BME280_pressure;Samples;Min_cycle;Max_cycle;Signal;HPM_P1;HPM_P2
2022/09/05 00:07:39;;;;;;;3.13;1.35;;;21.60;53.00;;;;;;20722216;28;20037;-71
2022/09/05 00:18:00;;;;;;;1.23;0.95;;;21.50;52.90;;;;;;20737359;28;20034;-72
2022/09/05 00:28:01;;;;;;;2.90;1.60;;;21.50;52.90;;;;;;20690411;28;20604;-71
2022/09/05 00:38:20;;;;;;;1.65;1.20;;;21.50;52.90;;;;;;20703847;28;20033;-72
2022/09/05 00:48:31;;;;;;;2.15;1.00;;;21.50;52.90;;;;;;20699895;28;20107;-71
2022/09/05 00:58:50;;;;;;;1.80;1.15;;;21.50;52.80;;;;;;20719461;28;20040;-72
2022/09/05 01:09:04;;;;;;;4.65;1.10;;;21.50;52.80;;;;;;20717336;28;20044;-72
2022/09/05 01:19:37;;;;;;;2.80;1.40;;;21.50;52.80;;;;;;20733386;28;20057;-71
2022/09/05 01:29:55;;;;;;;2.17;1.20;;;21.50;52.80;;;;;;20994889;23;20054;-71
2022/09/05 01:40:15;;;;;;;3.28;1.00;;;21.50;52.80;;;;;;20532534;28;20510;-71
2022/09/05 01:50:35;;;;;;;1.48;0.90;;;21.50;52.80;;;;;;20505221;29;20178;-73
2022/09/05 02:00:42;;;;;;;1.35;0.82;;;21.50;52.80;;;;;;20504053;28;20074;-71
2022/09/05 02:11:04;;;;;;;2.17;1.30;;;21.50;52.80;;;;;;20487967;29;20470;-73
2022/09/05 02:21:10;;;;;;;1.48;1.08;;;21.50;52.80;;;;;;20502921;28;20039;-72
2022/09/05 02:31:16;;;;;;;2.10;1.05;;;21.50;52.70;;;;;;20486849;29;20043;-73
2022/09/05 02:41:24;;;;;;;1.60;1.23;;;21.50;52.80;;;;;;20486330;29;20366;-73
2022/09/05 02:51:37;;;;;;;1.30;1.02;;;21.50;52.80;;;;;;20485215;29;20081;-72
2022/09/05 03:02:19;;;;;;;1.23;0.82;;;21.50;52.80;;;;;;20467939;29;20194;-72
2022/09/05 03:12:44;;;;;;;1.98;1.30;;;21.40;52.70;;;;;;20484755;28;20082;-72
2022/09/05 03:22:59;;;;;;;2.27;0.93;;;21.50;52.80;;;;;;20467783;29;20126;-72
2022/09/05 03:33:39;;;;;;;1.77;1.10;;;21.50;52.80;;;;;;20481718;29;20126;-72
2022/09/05 03:43:59;;;;;;;1.67;0.93;;;21.50;52.80;;;;;;20490368;29;20074;-71
2022/09/05 03:54:37;;;;;;;1.42;1.10;;;21.40;52.70;;;;;;20497940;28;20081;-72
2022/09/05 04:04:41;;;;;;;1.75;1.33;;;21.40;52.70;;;;;;20500005;28;20039;-72
2022/09/05 04:15:05;;;;;;;1.65;0.90;;;21.40;52.80;;;;;;20578861;28;20042;-78
2022/09/05 04:25:33;;;;;;;2.08;1.10;;;21.40;52.80;;;;;;20573873;28;20560;-75
2022/09/05 04:35:57;;;;;;;1.92;1.23;;;21.40;52.80;;;;;;20587548;28;20038;-75
2022/09/05 04:46:09;;;;;;;1.90;1.20;;;21.40;52.70;;;;;;20575479;28;20034;-75
2022/09/05 04:56:16;;;;;;;1.38;1.08;;;21.40;52.70;;;;;;20568121;28;20121;-74
2022/09/05 05:06:21;;;;;;;1.77;1.00;;;21.40;52.80;;;;;;20519292;28;20031;-74
2022/09/05 05:16:29;;;;;;;2.63;1.50;;;21.40;52.90;;;;;;20506122;28;20113;-74
2022/09/05 05:26:33;;;;;;;1.13;1.00;;;21.40;53.00;;;;;;20529430;28;20039;-68
2022/09/05 05:36:36;;;;;;;2.15;1.40;;;21.40;52.90;;;;;;20556873;28;20035;-71
2022/09/05 05:46:37;;;;;;;2.05;1.20;;;21.40;52.90;;;;;;20555768;28;20114;-71
2022/09/05 05:56:56;;;;;;;2.22;1.30;;;21.40;52.90;;;;;;20555468;28;20134;-71
2022/09/05 06:07:16;;;;;;;2.60;1.50;;;21.40;52.90;;;;;;20555285;28;20378;-71
2022/09/05 06:17:47;;;;;;;2.55;1.15;;;21.30;52.80;;;;;;20494228;28;20045;-70
2022/09/05 06:27:51;;;;;;;2.47;1.48;;;21.40;52.90;;;;;;20498632;28;20035;-69
2022/09/05 06:38:12;;;;;;;3.17;1.27;;;21.40;52.90;;;;;;20503486;28;20039;-72
2022/09/05 06:48:22;;;;;;;2.92;1.05;;;21.40;52.90;;;;;;20470230;28;20427;-70
2022/09/05 06:58:29;;;;;;;2.05;1.40;;;21.30;52.80;;;;;;20467213;28;20489;-70
2022/09/05 07:08:52;;;;;;;1.38;0.90;;;21.40;52.80;;;;;;20580560;28;20042;-69
2022/09/05 07:18:59;;;;;;;1.75;1.15;;;21.40;52.80;;;;;;20581093;28;20038;-70
2022/09/05 07:29:02;;;;;;;1.90;1.13;;;21.40;52.80;;;;;;20563994;28;20496;-69
2022/09/05 07:39:03;;;;;;;3.80;1.20;;;21.40;52.90;;;;;;20452631;29;20047;-70
2022/09/05 07:49:10;;;;;;;1.60;0.95;;;21.40;52.90;;;;;;20496966;28;20038;-69
2022/09/05 07:59:12;;;;;;;1.70;1.25;;;21.40;52.80;;;;;;20478899;29;20052;-70
2022/09/05 08:09:14;;;;;;;2.30;1.30;;;21.40;52.80;;;;;;20527027;28;20047;-69
2022/09/05 08:19:37;;;;;;;2.78;1.48;;;21.40;52.90;;;;;;20527297;28;20119;-68
2022/09/05 08:29:39;;;;;;;3.33;1.50;;;21.40;53.00;;;;;;20576613;28;20473;-69
2022/09/05 08:39:40;;;;;;;4.18;2.05;;;21.40;53.00;;;;;;20529848;28;20034;-70
2022/09/05 08:50:02;;;;;;;2.08;1.17;;;21.50;53.10;;;;;;20560047;28;20490;-68
2022/09/05 09:00:06;;;;;;;2.08;1.40;;;21.50;53.20;;;;;;20544766;28;20046;-69
2022/09/05 09:10:39;;;;;;;4.40;1.55;;;21.50;53.20;;;;;;20559522;28;20039;-69
2022/09/05 09:20:54;;;;;;;2.10;1.50;;;21.50;53.30;;;;;;20579004;28;20101;-68
2022/09/05 09:31:27;;;;;;;3.37;1.73;;;21.60;53.40;;;;;;20558185;28;20031;-68
2022/09/05 09:41:44;;;;;;;2.08;1.58;;;21.60;53.40;;;;;;20564267;28;20054;-71
2022/09/05 09:52:03;;;;;;;1.42;1.20;;;21.60;53.40;;;;;;20536385;28;20122;-71
2022/09/05 10:02:14;;;;;;;1.45;1.25;;;21.60;53.40;;;;;;20507406;28;20070;-76
2022/09/05 10:12:37;;;;;;;1.90;1.05;;;21.60;53.40;;;;;;20512965;28;20038;-78
2022/09/05 10:23:03;;;;;;;1.70;1.40;;;21.70;53.50;;;;;;20537645;28;20035;-78
2022/09/05 10:33:42;;;;;;;2.00;1.33;;;21.70;53.50;;;;;;20546425;28;20034;-74
2022/09/05 10:44:01;;;;;;;2.38;1.52;;;21.70;53.50;;;;;;20459407;28;20410;-73
2022/09/05 10:54:21;;;;;;;2.00;1.40;;;21.70;53.60;;;;;;20555468;28;20043;-73
2022/09/05 11:04:39;;;;;;;2.25;1.50;;;21.70;53.70;;;;;;20557530;28;20647;-75
2022/09/05 11:14:51;;;;;;;2.13;1.23;;;21.70;53.80;;;;;;20540451;28;20465;-69
2022/09/05 11:24:54;;;;;;;2.25;1.42;;;21.70;53.80;;;;;;20536779;28;20092;-69
2022/09/05 11:35:12;;;;;;;1.90;1.00;;;21.70;53.90;;;;;;20523151;28;20042;-69
2022/09/05 11:45:16;;;;;;;1.45;1.20;;;21.80;54.00;;;;;;20512169;28;20492;-71
2022/09/05 11:55:33;;;;;;;2.00;1.13;;;21.80;54.10;;;;;;20495324;28;20031;-70
2022/09/05 12:05:53;;;;;;;2.17;1.27;;;21.80;54.10;;;;;;20522594;28;20038;-71
2022/09/05 12:15:53;;;;;;;1.52;1.20;;;21.80;54.20;;;;;;20527595;28;20034;-68
2022/09/05 12:25:57;;;;;;;3.00;1.38;;;21.80;54.20;;;;;;20525670;28;20054;-74
2022/09/05 12:36:06;;;;;;;3.47;1.38;;;21.80;54.30;;;;;;20511997;28;20390;-77
2022/09/05 12:46:25;;;;;;;5.72;2.60;;;21.90;54.30;;;;;;20524377;28;20045;-74
2022/09/05 12:56:50;;;;;;;3.75;2.13;;;21.90;54.40;;;;;;20477370;28;20390;-73
2022/09/05 13:06:57;;;;;;;4.28;2.33;;;21.90;54.40;;;;;;20555109;28;20046;-74
2022/09/05 13:17:00;;;;;;;6.07;2.97;;;21.90;54.50;;;;;;20477174;29;20063;-75
2022/09/05 13:27:28;;;;;;;5.57;2.83;;;21.90;54.50;;;;;;20530496;28;20043;-75
2022/09/05 13:37:29;;;;;;;5.97;3.13;;;22.00;54.50;;;;;;20502149;28;20032;-78
2022/09/05 13:47:48;;;;;;;6.25;2.80;;;22.00;54.50;;;;;;20460368;28;20070;-76
2022/09/05 13:57:53;;;;;;;4.30;2.63;;;22.00;54.60;;;;;;20462250;29;20043;-76
2022/09/05 14:08:33;;;;;;;5.13;2.03;;;22.10;54.60;;;;;;20474869;29;20077;-78
2022/09/05 14:29:13;;;;;;;4.65;2.40;;;22.30;54.50;;;;;;20492955;28;20521;-80
2022/09/05 14:39:52;;;;;;;7.03;2.95;;;24.10;51.40;;;;;;20474321;29;20043;-78
2022/09/05 14:50:05;;;;;;;5.65;2.50;;;27.20;45.20;;;;;;20472056;29;20047;-82
2022/09/05 15:00:12;;;;;;;4.20;2.33;;;29.20;42.20;;;;;;20500269;28;20738;-78
2022/09/05 15:10:15;;;;;;;4.13;2.55;;;30.00;40.50;;;;;;20482549;28;20038;-78
2022/09/05 15:20:30;;;;;;;3.90;2.22;;;30.30;39.40;;;;;;20551970;28;20448;-77
2022/09/05 15:30:34;;;;;;;4.43;2.35;;;30.10;38.90;;;;;;20499611;29;20494;-78
2022/09/05 15:40:34;;;;;;;4.63;2.70;;;29.70;39.20;;;;;;20540264;28;20515;-75
2022/09/05 15:50:42;;;;;;;3.47;2.00;;;29.10;40.00;;;;;;20544914;28;20066;-78
2022/09/05 16:00:45;;;;;;;5.97;2.15;;;28.60;40.90;;;;;;20547487;28;20390;-79
2022/09/05 16:10:45;;;;;;;3.17;1.90;;;28.20;41.60;;;;;;20525646;28;20039;-76
2022/09/05 16:20:49;;;;;;;3.67;1.77;;;27.80;42.40;;;;;;20516936;28;20507;-76
2022/09/05 16:30:51;;;;;;;;;;;27.50;42.90;;;;;;20548510;28;20030;-73
2022/09/05 16:40:53;;;;;;;3.90;1.98;;;27.30;43.60;;;;;;20577879;28;19921;-73
2022/09/05 16:51:15;;;;;;;5.68;2.03;;;26.70;44.80;;;;;;20537307;28;20039;-73
2022/09/05 17:01:43;;;;;;;2.75;1.70;;;26.00;46.10;;;;;;20495292;29;20055;-74
2022/09/05 17:11:44;;;;;;;3.50;1.65;;;25.50;47.20;;;;;;20494061;29;20031;-73
2022/09/05 17:21:46;;;;;;;2.85;1.73;;;25.00;48.00;;;;;;20506724;29;20043;-72
2022/09/05 17:31:51;;;;;;;3.70;2.03;;;24.70;48.90;;;;;;20514949;28;20042;-74
2022/09/05 17:42:13;;;;;;;2.95;1.85;;;24.40;49.50;;;;;;20563554;28;20077;-74
2022/09/05 17:52:18;;;;;;;2.13;1.45;;;24.20;50.20;;;;;;20586693;28;20129;-74
2022/09/05 18:02:19;;;;;;;1.70;1.48;;;24.00;50.60;;;;;;20553822;28;20564;-72
2022/09/05 18:12:31;;;;;;;1.95;1.38;;;23.80;51.00;;;;;;20566369;28;20127;-72
2022/09/05 18:22:32;;;;;;;2.15;1.52;;;23.70;51.40;;;;;;20533969;28;20042;-73
2022/09/05 18:32:41;;;;;;;2.20;1.40;;;23.60;51.60;;;;;;20527029;28;20477;-73
2022/09/05 18:42:41;;;;;;;2.80;1.60;;;23.50;51.80;;;;;;20542772;28;20097;-73
2022/09/05 18:52:43;;;;;;;1.90;1.27;;;23.50;52.00;;;;;;20551117;28;20034;-72
2022/09/05 19:02:54;;;;;;;2.50;1.40;;;23.50;52.10;;;;;;20550420;28;20282;-73
2022/09/05 19:13:15;;;;;;;2.20;1.50;;;23.40;52.10;;;;;;20550252;28;20038;-73
2022/09/05 19:23:19;;;;;;;1.55;1.30;;;23.40;52.20;;;;;;20534027;28;20070;-74
2022/09/05 19:33:30;;;;;;;1.60;1.43;;;23.40;52.20;;;;;;20563280;28;20515;-73
2022/09/05 19:43:30;;;;;;;4.35;1.75;;;23.40;52.20;;;;;;20498404;28;20038;-75
2022/09/05 19:53:31;;;;;;;1.48;1.10;;;23.40;52.10;;;;;;20508580;28;20153;-75
2022/09/05 20:03:32;;;;;;;1.30;1.20;;;23.50;52.10;;;;;;20529766;28;20031;-74
2022/09/05 20:13:33;;;;;;;1.73;1.20;;;23.50;51.90;;;;;;20561288;28;20122;-74
2022/09/05 20:23:35;;;;;;;1.67;1.15;;;23.60;51.80;;;;;;20511343;28;20397;-75
2022/09/05 20:33:43;;;;;;;1.48;1.15;;;23.60;51.70;;;;;;20557106;28;20039;-73
2022/09/05 20:43:53;;;;;;;2.15;1.35;;;23.60;51.60;;;;;;20541626;28;20059;-75
2022/09/05 20:53:55;;;;;;;1.92;1.45;;;23.70;51.60;;;;;;20527431;28;20035;-74
2022/09/05 21:03:57;;;;;;;2.15;1.60;;;23.60;51.50;;;;;;20551007;28;20058;-74
2022/09/05 21:14:01;;;;;;;2.10;1.20;;;23.60;51.50;;;;;;20557106;28;20038;-74
2022/09/05 21:24:07;;;;;;;2.38;1.40;;;23.60;51.50;;;;;;20556359;28;20130;-76
2022/09/05 21:34:23;;;;;;;1.33;1.20;;;23.60;51.50;;;;;;20555553;28;20405;-74
2022/09/05 21:44:25;;;;;;;1.20;1.10;;;23.60;51.60;;;;;;20540124;28;20142;-74
2022/09/05 21:54:25;;;;;;;1.90;1.33;;;23.60;51.60;;;;;;20554140;28;20031;-73
2022/09/05 22:04:26;;;;;;;1.45;1.23;;;23.60;51.80;;;;;;20509898;28;20107;-72
2022/09/05 22:14:28;;;;;;;2.13;1.70;;;23.50;51.70;;;;;;20473127;28;20050;-72
2022/09/05 22:24:30;;;;;;;1.90;1.48;;;23.50;51.80;;;;;;20487082;28;20497;-73
2022/09/05 22:34:32;;;;;;;2.25;1.55;;;23.50;51.80;;;;;;20495649;28;20034;-71
2022/09/05 22:44:32;;;;;;;2.13;1.42;;;23.50;52.20;;;;;;20565314;28;20043;-74
2022/09/05 22:54:33;;;;;;;1.50;1.17;;;23.50;51.90;;;;;;20548995;28;20126;-74
2022/09/05 23:04:34;;;;;;;2.72;1.75;;;23.50;52.00;;;;;;20564058;28;20430;-74
2022/09/05 23:14:35;;;;;;;1.75;1.20;;;23.50;52.00;;;;;;20547472;28;20050;-73
2022/09/05 23:24:35;;;;;;;1.92;1.42;;;23.40;51.90;;;;;;20563512;28;20050;-73
2022/09/05 23:34:36;;;;;;;1.73;1.48;;;23.50;52.60;;;;;;20561807;28;20046;-73
2022/09/05 23:44:36;;;;;;;1.67;1.17;;;23.40;52.00;;;;;;20546148;28;20039;-74
2022/09/05 23:54:37;;;;;;;2.13;1.60;;;23.40;52.00;;;;;;20545220;28;20041;-75
